createdAt,value
2018-08-30T00:01:35.162Z,8.10
2018-08-30T00:04:03.468Z,7.70
2018-08-30T00:06:32.542Z,7.70
2018-08-30T00:09:00.900Z,7.20
2018-08-30T00:11:29.267Z,8.17
2018-08-30T00:13:57.634Z,7.23
2018-08-30T00:16:25.959Z,6.83
2018-08-30T00:18:54.311Z,6.73
2018-08-30T00:21:22.736Z,7.33
2018-08-30T00:23:51.216Z,6.43
2018-08-30T00:26:19.661Z,6.77
2018-08-30T00:28:48.691Z,7.40
2018-08-30T00:31:17.002Z,6.77
2018-08-30T00:33:45.376Z,6.73
2018-08-30T00:36:13.750Z,6.90
2018-08-30T00:38:42.061Z,6.30
2018-08-30T00:41:10.613Z,6.10
2018-08-30T00:43:38.980Z,6.20
2018-08-30T00:46:07.354Z,6.53
2018-08-30T00:48:35.887Z,6.00
2018-08-30T00:51:04.258Z,6.73
2018-08-30T00:53:32.552Z,6.20
2018-08-30T00:56:00.926Z,6.60
2018-08-30T00:58:29.332Z,6.60
2018-08-30T01:00:57.818Z,5.53
2018-08-30T01:03:26.216Z,5.37
2018-08-30T01:05:54.595Z,5.03
2018-08-30T01:08:23.025Z,4.70
2018-08-30T01:10:51.533Z,5.67
2018-08-30T01:13:19.845Z,5.10
2018-08-30T01:15:48.189Z,5.00
2018-08-30T01:18:16.528Z,5.33
2018-08-30T01:20:44.925Z,5.33
2018-08-30T01:23:13.254Z,4.70
2018-08-30T01:25:45.315Z,5.90
2018-08-30T01:28:13.698Z,5.70
2018-08-30T01:30:42.079Z,5.03
2018-08-30T01:33:10.475Z,4.70
2018-08-30T01:35:38.835Z,4.90
2018-08-30T01:38:07.134Z,4.20
2018-08-30T01:40:35.690Z,4.57
2018-08-30T01:43:04.089Z,4.73
2018-08-30T01:45:32.523Z,4.47
2018-08-30T01:48:00.863Z,4.23
2018-08-30T01:50:29.201Z,4.20
2018-08-30T01:52:57.558Z,4.60
2018-08-30T01:55:26.062Z,4.27
2018-08-30T01:57:54.524Z,4.13
2018-08-30T02:00:22.861Z,3.43
2018-08-30T02:02:51.934Z,3.20
2018-08-30T02:05:20.297Z,3.10
2018-08-30T02:07:48.751Z,3.60
2018-08-30T02:10:17.193Z,3.40
2018-08-30T02:12:45.599Z,2.83
2018-08-30T02:15:14.177Z,3.47
2018-08-30T02:17:42.518Z,3.03
2018-08-30T02:20:11.151Z,3.07
2018-08-30T02:22:39.564Z,3.30
2018-08-30T02:25:07.955Z,2.87
2018-08-30T02:27:36.442Z,3.17
2018-08-30T02:30:04.780Z,3.17
2018-08-30T02:32:33.324Z,3.30
2018-08-30T02:35:01.772Z,3.57
2018-08-30T02:37:30.162Z,3.10
2018-08-30T02:39:58.491Z,3.27
2018-08-30T02:42:27.563Z,2.73
2018-08-30T02:44:55.966Z,2.90
2018-08-30T02:47:24.426Z,2.60
2018-08-30T02:49:52.730Z,3.13
2018-08-30T02:52:21.129Z,2.70
2018-08-30T02:54:49.550Z,2.30
2018-08-30T02:57:18.424Z,2.77
2018-08-30T02:59:46.756Z,2.10
2018-08-30T03:02:15.182Z,3.00
2018-08-30T03:04:43.656Z,2.00
2018-08-30T03:07:12.563Z,1.93
2018-08-30T03:09:40.883Z,1.90
2018-08-30T03:12:09.251Z,1.87
2018-08-30T03:14:37.623Z,2.27
2018-08-30T03:17:06.075Z,1.70
2018-08-30T03:19:34.537Z,2.17
2018-08-30T03:22:02.964Z,2.20
2018-08-30T03:24:31.324Z,2.30
2018-08-30T03:26:59.707Z,1.77
2018-08-30T03:29:28.855Z,1.57
2018-08-30T03:31:57.717Z,1.87
2018-08-30T03:34:26.143Z,3.77
2018-08-30T03:36:54.519Z,1.70
2018-08-30T03:39:22.899Z,2.17
2018-08-30T03:41:51.255Z,1.73
2018-08-30T03:44:19.648Z,2.40
2018-08-30T03:46:48.000Z,2.23
2018-08-30T03:49:16.304Z,1.83
2018-08-30T03:51:44.742Z,1.50
2018-08-30T03:54:13.163Z,1.63
2018-08-30T03:56:41.580Z,1.93
2018-08-30T03:59:10.095Z,1.73
2018-08-30T04:01:38.566Z,1.70
2018-08-30T04:04:06.911Z,2.10
2018-08-30T04:06:35.294Z,1.87
2018-08-30T04:09:04.510Z,1.50
2018-08-30T04:11:33.389Z,1.53
2018-08-30T04:14:01.744Z,2.33
2018-08-30T04:16:30.411Z,1.47
2018-08-30T04:19:04.158Z,1.80
2018-08-30T04:21:32.990Z,1.23
2018-08-30T04:24:01.665Z,1.93
2018-08-30T04:26:30.459Z,1.57
2018-08-30T04:28:59.285Z,2.33
2018-08-30T04:31:28.083Z,1.80
2018-08-30T04:33:56.549Z,2.10
2018-08-30T04:36:25.297Z,1.70
2018-08-30T04:38:53.989Z,2.67
2018-08-30T04:41:22.515Z,1.53
2018-08-30T04:43:50.892Z,1.70
2018-08-30T04:46:19.520Z,2.13
2018-08-30T04:48:47.956Z,1.80
2018-08-30T04:51:16.255Z,2.13
2018-08-30T04:53:44.570Z,1.60
2018-08-30T04:56:12.894Z,1.83
2018-08-30T04:58:41.244Z,1.20
2018-08-30T05:01:10.305Z,1.70
2018-08-30T05:03:38.752Z,1.97
2018-08-30T05:06:06.830Z,1.83
2018-08-30T05:08:35.335Z,1.43
2018-08-30T05:11:03.733Z,1.90
2018-08-30T05:13:32.162Z,1.60
2018-08-30T05:16:01.058Z,1.77
2018-08-30T05:18:29.484Z,2.10
2018-08-30T05:20:58.433Z,2.10
2018-08-30T05:23:27.142Z,2.23
2018-08-30T05:25:56.686Z,2.33
2018-08-30T05:28:25.694Z,1.73
2018-08-30T05:30:55.288Z,2.03
2018-08-30T05:33:23.746Z,1.57
2018-08-30T05:35:52.304Z,1.87
2018-08-30T05:38:20.806Z,1.80
2018-08-30T05:40:49.609Z,2.30
2018-08-30T05:43:18.174Z,1.53
2018-08-30T05:45:46.615Z,2.03
2018-08-30T05:48:15.227Z,2.23
2018-08-30T05:50:43.875Z,1.30
2018-08-30T05:53:12.329Z,1.97
2018-08-30T05:55:42.268Z,2.20
2018-08-30T05:58:10.731Z,2.17
2018-08-30T06:00:39.147Z,1.90
2018-08-30T06:03:07.641Z,1.70
2018-08-30T06:05:36.090Z,1.43
2018-08-30T06:08:04.944Z,1.50
2018-08-30T06:10:47.071Z,1.70
2018-08-30T06:13:15.599Z,1.67
2018-08-30T06:15:43.972Z,1.40
2018-08-30T06:18:12.481Z,1.40
2018-08-30T06:20:40.815Z,1.67
2018-08-30T06:23:09.166Z,1.20
2018-08-30T06:25:37.580Z,1.83
2018-08-30T06:28:06.753Z,1.43
2018-08-30T06:30:35.433Z,1.40
2018-08-30T06:33:04.022Z,1.03
2018-08-30T06:35:34.240Z,1.27
2018-08-30T06:38:02.737Z,1.50
2018-08-30T06:40:31.260Z,1.57
2018-08-30T06:42:59.643Z,1.97
2018-08-30T06:45:28.240Z,1.63
2018-08-30T06:47:56.839Z,1.80
2018-08-30T06:50:27.505Z,1.60
2018-08-30T06:55:40.175Z,1.53
2018-08-30T06:58:08.815Z,1.93
2018-08-30T07:00:37.468Z,2.13
2018-08-30T07:03:06.633Z,1.60
2018-08-30T07:05:35.315Z,1.53
2018-08-30T07:08:04.151Z,1.03
2018-08-30T07:10:32.784Z,1.10
2018-08-30T07:13:01.513Z,2.03
2018-08-30T07:15:29.902Z,1.40
2018-08-30T07:17:58.437Z,1.50
2018-08-30T07:20:26.893Z,1.30
2018-08-30T07:22:55.400Z,1.67
2018-08-30T07:25:23.802Z,1.40
2018-08-30T07:27:52.483Z,1.40
2018-08-30T07:30:20.953Z,1.37
2018-08-30T07:32:49.324Z,1.43
2018-08-30T07:35:17.910Z,1.10
2018-08-30T07:37:46.328Z,1.77
2018-08-30T07:40:15.330Z,1.27
2018-08-30T07:42:43.793Z,1.07
2018-08-30T07:45:13.114Z,1.60
2018-08-30T07:47:42.364Z,1.77
2018-08-30T07:50:11.605Z,1.40
2018-08-30T07:52:41.038Z,1.30
2018-08-30T07:55:09.441Z,1.60
2018-08-30T07:57:37.972Z,1.47
2018-08-30T08:00:06.966Z,1.83
2018-08-30T08:02:36.299Z,1.50
2018-08-30T08:05:04.706Z,1.43
2018-08-30T08:07:33.863Z,1.37
2018-08-30T08:10:02.516Z,1.40
2018-08-30T08:12:30.912Z,1.27
2018-08-30T08:15:00.303Z,1.60
2018-08-30T08:17:28.798Z,1.20
2018-08-30T08:19:57.119Z,1.27
2018-08-30T08:22:25.537Z,1.37
2018-08-30T08:24:53.890Z,1.13
2018-08-30T08:27:22.257Z,1.00
2018-08-30T08:29:50.700Z,1.10
2018-08-30T08:32:19.119Z,0.90
2018-08-30T08:34:47.621Z,1.20
2018-08-30T08:37:15.985Z,1.93
2018-08-30T08:39:44.908Z,1.30
2018-08-30T08:42:13.296Z,1.40
2018-08-30T08:44:41.723Z,1.73
2018-08-30T08:47:10.169Z,1.40
2018-08-30T08:49:38.626Z,1.20
2018-08-30T08:52:07.003Z,0.93
2018-08-30T08:54:36.796Z,1.20
2018-08-30T08:57:05.427Z,1.20
2018-08-30T08:59:33.829Z,1.07
2018-08-30T09:02:02.322Z,1.40
2018-08-30T09:04:30.770Z,1.53
2018-08-30T09:07:01.688Z,1.40
2018-08-30T09:09:30.007Z,1.13
2018-08-30T09:11:58.490Z,1.10
2018-08-30T09:14:27.053Z,1.27
2018-08-30T09:16:55.591Z,1.30
2018-08-30T09:19:24.267Z,1.00
2018-08-30T09:21:52.642Z,1.13
2018-08-30T09:24:21.123Z,1.33
2018-08-30T09:26:49.582Z,1.40
2018-08-30T09:29:17.975Z,1.10
2018-08-30T09:31:46.671Z,1.10
2018-08-30T09:34:15.113Z,1.50
2018-08-30T09:36:43.535Z,1.30
2018-08-30T09:39:11.946Z,1.30
2018-08-30T09:41:40.528Z,1.30
2018-08-30T09:44:08.909Z,1.10
2018-08-30T09:46:37.476Z,1.27
2018-08-30T09:49:06.314Z,1.10
2018-08-30T09:51:34.797Z,1.30
2018-08-30T09:54:03.343Z,1.40
2018-08-30T09:56:31.856Z,1.37
2018-08-30T09:59:00.980Z,1.53
2018-08-30T10:01:35.109Z,1.70
2018-08-30T10:04:03.512Z,1.20
2018-08-30T10:06:31.995Z,1.10
2018-08-30T10:09:00.596Z,1.00
2018-08-30T10:11:29.285Z,1.20
2018-08-30T10:13:57.679Z,1.40
2018-08-30T10:16:26.305Z,1.10
2018-08-30T10:18:55.012Z,1.00
2018-08-30T10:21:24.079Z,1.10
2018-08-30T10:23:52.480Z,1.23
2018-08-30T10:26:21.706Z,1.07
2018-08-30T10:28:50.132Z,1.10
2018-08-30T10:31:18.676Z,1.07
2018-08-30T10:33:47.035Z,1.10
2018-08-30T10:36:16.059Z,1.10
2018-08-30T10:38:44.508Z,1.20
2018-08-30T10:41:12.953Z,1.30
2018-08-30T10:43:41.460Z,1.13
2018-08-30T10:46:10.093Z,1.17
2018-08-30T10:48:38.628Z,1.20
2018-08-30T10:51:07.196Z,1.30
2018-08-30T10:53:35.598Z,1.27
2018-08-30T10:56:04.429Z,1.50
2018-08-30T10:58:32.977Z,1.40
2018-08-30T11:01:01.436Z,1.30
2018-08-30T11:03:29.997Z,1.70
2018-08-30T11:05:58.456Z,1.17
2018-08-30T11:08:27.436Z,1.40
2018-08-30T11:10:55.776Z,1.40
2018-08-30T11:13:24.457Z,1.50
2018-08-30T11:15:52.842Z,1.13
2018-08-30T11:18:21.616Z,1.40
2018-08-30T11:20:50.117Z,1.33
2018-08-30T11:23:18.580Z,1.20
2018-08-30T11:25:47.040Z,1.13
2018-08-30T11:28:15.617Z,1.13
2018-08-30T11:30:44.002Z,1.00
2018-08-30T11:33:12.461Z,1.03
2018-08-30T11:35:40.787Z,1.13
2018-08-30T11:38:09.394Z,0.90
2018-08-30T11:40:37.864Z,1.57
2018-08-30T11:43:06.467Z,1.20
2018-08-30T11:45:34.932Z,1.30
2018-08-30T11:48:03.336Z,1.80
2018-08-30T11:50:31.744Z,1.50
2018-08-30T11:53:00.702Z,1.10
2018-08-30T11:55:29.107Z,1.63
2018-08-30T11:57:57.522Z,1.40
2018-08-30T12:00:26.062Z,1.30
2018-08-30T12:02:54.469Z,1.27
2018-08-30T12:05:22.877Z,1.23
2018-08-30T12:07:53.278Z,0.90
2018-08-30T12:10:25.454Z,1.23
2018-08-30T12:12:54.037Z,1.10
2018-08-30T12:15:22.519Z,1.30
2018-08-30T12:17:50.935Z,1.10
2018-08-30T12:20:20.050Z,0.70
2018-08-30T12:22:48.575Z,1.10
2018-08-30T12:25:17.136Z,1.20
2018-08-30T12:27:45.620Z,1.10
2018-08-30T12:30:13.980Z,1.33
2018-08-30T12:32:42.454Z,1.10
2018-08-30T12:35:11.925Z,1.00
2018-08-30T12:37:40.253Z,1.40
2018-08-30T12:40:08.739Z,1.07
2018-08-30T12:42:43.423Z,1.00
2018-08-30T12:45:12.571Z,1.27
2018-08-30T12:47:41.753Z,1.03
2018-08-30T12:50:10.330Z,1.40
2018-08-30T12:52:39.451Z,1.10
2018-08-30T12:55:08.489Z,1.20
2018-08-30T12:57:36.968Z,1.00
2018-08-30T13:00:05.826Z,1.30
2018-08-30T13:02:34.206Z,1.17
2018-08-30T13:05:02.622Z,1.07
2018-08-30T13:07:32.563Z,0.90
2018-08-30T13:10:01.084Z,1.20
2018-08-30T13:12:29.602Z,1.70
2018-08-30T13:14:57.985Z,1.00
2018-08-30T13:17:26.216Z,1.20
2018-08-30T13:19:54.563Z,1.10
2018-08-30T13:22:23.310Z,1.20
2018-08-30T13:24:54.770Z,1.10
2018-08-30T13:27:24.252Z,1.47
2018-08-30T13:29:53.137Z,0.90
2018-08-30T13:32:26.065Z,1.07
2018-08-30T13:34:54.705Z,1.00
2018-08-30T13:37:23.172Z,1.03
2018-08-30T13:39:51.428Z,1.23
2018-08-30T13:42:19.885Z,1.30
2018-08-30T13:44:48.162Z,1.33
2018-08-30T13:47:16.684Z,1.47
2018-08-30T13:49:44.870Z,0.87
2018-08-30T13:52:13.229Z,1.07
2018-08-30T13:54:41.756Z,1.10
2018-08-30T13:57:11.383Z,0.90
2018-08-30T13:59:39.965Z,1.30
2018-08-30T14:02:08.827Z,1.23
2018-08-30T14:04:37.268Z,1.43
2018-08-30T14:07:06.866Z,1.17
2018-08-30T14:09:35.275Z,0.77
2018-08-30T14:12:03.811Z,1.00
2018-08-30T14:14:32.566Z,1.00
2018-08-30T14:17:01.313Z,1.03
2018-08-30T14:19:29.686Z,0.93
2018-08-30T14:21:58.710Z,0.90
2018-08-30T14:24:27.101Z,0.87
2018-08-30T14:26:56.009Z,0.90
2018-08-30T14:29:24.372Z,1.07
2018-08-30T14:31:52.698Z,1.00
2018-08-30T14:34:21.251Z,1.00
2018-08-30T14:36:50.320Z,1.40
2018-08-30T14:39:18.755Z,1.07
2018-08-30T14:41:47.290Z,1.07
2018-08-30T14:44:15.642Z,1.10
2018-08-30T14:46:44.131Z,1.00
2018-08-30T14:49:13.142Z,1.07
2018-08-30T14:51:41.411Z,1.20
2018-08-30T14:54:09.928Z,1.10
2018-08-30T14:56:39.052Z,1.23
2018-08-30T14:59:07.681Z,0.97
2018-08-30T15:01:36.009Z,1.30
2018-08-30T15:04:05.178Z,1.00
2018-08-30T15:06:33.711Z,1.20
2018-08-30T15:09:09.599Z,1.10
2018-08-30T15:11:38.927Z,1.50
2018-08-30T15:14:27.889Z,1.07
2018-08-30T15:17:01.574Z,1.23
2018-08-30T15:19:34.265Z,1.17
2018-08-30T15:22:04.970Z,1.00
2018-08-30T15:24:35.349Z,0.90
2018-08-30T15:27:06.480Z,0.73
2018-08-30T15:29:35.749Z,1.17
2018-08-30T15:32:06.216Z,1.20
2018-08-30T15:34:34.564Z,1.00
2018-08-30T15:37:14.952Z,1.20
2018-08-30T15:39:48.001Z,0.93
2018-08-30T15:42:18.728Z,1.13
2018-08-30T15:44:53.161Z,1.83
2018-08-30T15:47:23.499Z,1.03
2018-08-30T15:49:55.625Z,1.30
2018-08-30T15:52:29.590Z,1.67
2018-08-30T15:55:08.196Z,1.10
2018-08-30T15:57:38.308Z,1.00
2018-08-30T16:00:07.264Z,1.17
2018-08-30T16:02:46.713Z,1.20
2018-08-30T16:05:15.328Z,1.10
2018-08-30T16:07:49.831Z,1.03
2018-08-30T16:10:20.201Z,1.20
2018-08-30T16:12:49.785Z,1.30
2018-08-30T16:15:18.677Z,1.30
2018-08-30T16:17:47.056Z,1.20
2018-08-30T16:20:15.426Z,1.10
2018-08-30T16:23:48.601Z,1.07
2018-08-30T16:26:17.025Z,0.90
2018-08-30T16:28:45.379Z,0.87
2018-08-30T16:31:14.364Z,1.03
2018-08-30T16:33:43.333Z,1.00
2018-08-30T16:36:11.894Z,1.30
2018-08-30T16:38:40.344Z,1.00
2018-08-30T16:41:09.022Z,1.00
2018-08-30T16:43:37.348Z,1.40
2018-08-30T16:46:05.828Z,0.83
2018-08-30T16:48:34.238Z,1.30
2018-08-30T16:51:02.657Z,1.00
2018-08-30T16:53:31.059Z,1.20
2018-08-30T16:55:59.575Z,1.17
2018-08-30T16:58:28.240Z,0.90
2018-08-30T17:00:56.640Z,1.10
2018-08-30T17:03:25.137Z,1.13
2018-08-30T17:06:11.559Z,1.37
2018-08-30T17:08:40.302Z,5.87
2018-08-30T17:11:08.609Z,1.50
2018-08-30T17:13:37.655Z,2.50
2018-08-30T17:16:06.030Z,3.03
2018-08-30T17:18:34.456Z,3.50
2018-08-30T17:21:02.774Z,2.33
2018-08-30T17:23:31.992Z,2.57
2018-08-30T17:26:00.515Z,1.67
2018-08-30T17:28:29.110Z,3.17
2018-08-30T17:31:03.753Z,1.60
2018-08-30T17:33:32.193Z,1.50
2018-08-30T17:36:00.609Z,2.07
2018-08-30T17:38:29.169Z,1.60
2018-08-30T17:40:57.813Z,2.50
2018-08-30T17:43:26.193Z,1.67
2018-08-30T17:45:54.867Z,1.47
2018-08-30T17:48:23.402Z,1.40
2018-08-30T17:50:52.016Z,1.43
2018-08-30T17:53:20.596Z,1.17
2018-08-30T17:55:49.078Z,2.40
2018-08-30T17:58:17.548Z,1.47
2018-08-30T18:00:47.257Z,1.20
2018-08-30T18:03:16.987Z,1.10
2018-08-30T18:05:46.123Z,1.13
2018-08-30T18:08:19.744Z,1.00
2018-08-30T18:10:48.359Z,2.07
2018-08-30T18:13:18.977Z,1.00
2018-08-30T18:15:47.599Z,1.07
2018-08-30T18:18:16.554Z,1.30
2018-08-30T18:20:45.040Z,1.40
2018-08-30T18:23:14.403Z,1.17
2018-08-30T18:25:45.390Z,1.43
2018-08-30T18:28:13.775Z,1.20
2018-08-30T18:30:42.410Z,1.10
2018-08-30T18:33:10.769Z,1.80
2018-08-30T18:35:39.149Z,1.13
2018-08-30T18:38:07.533Z,1.00
2018-08-30T18:40:36.057Z,1.30
2018-08-30T18:43:06.792Z,1.30
2018-08-30T18:45:38.651Z,1.47
2018-08-30T18:48:07.072Z,1.60
2018-08-30T18:50:35.797Z,1.40
2018-08-30T18:53:05.305Z,1.57
2018-08-30T18:55:34.708Z,1.63
2018-08-30T18:58:03.728Z,1.10
2018-08-30T19:00:33.683Z,1.30
2018-08-30T19:03:02.345Z,2.23
2018-08-30T19:11:50.612Z,1.50
2018-08-30T19:14:19.915Z,1.80
2018-08-30T19:16:55.335Z,1.93
2018-08-30T19:19:28.080Z,1.70
2018-08-30T19:21:58.837Z,1.50
2018-08-30T19:24:33.722Z,1.43
2018-08-30T19:27:02.841Z,1.50
2018-08-30T19:29:36.879Z,1.60
2018-08-30T19:32:07.415Z,1.90
2018-08-30T19:34:38.059Z,1.80
2018-08-30T19:37:07.462Z,1.70
2018-08-30T19:39:36.740Z,1.90
2018-08-30T19:44:50.772Z,1.70
2018-08-30T19:47:19.816Z,1.87
2018-08-30T19:49:49.452Z,1.60
2018-08-30T19:52:21.331Z,1.73
2018-08-30T19:54:50.167Z,1.80
2018-08-30T19:57:19.100Z,1.70
2018-08-30T19:59:47.888Z,2.23
2018-08-30T20:02:17.084Z,2.20
2018-08-30T20:04:46.936Z,1.87
2018-08-30T20:07:17.701Z,2.27
2018-08-30T20:09:47.522Z,2.00
2018-08-30T20:12:16.520Z,1.83
2018-08-30T20:14:45.263Z,1.97
2018-08-30T20:17:13.979Z,2.20
2018-08-30T20:19:45.165Z,2.30
2018-08-30T20:22:14.278Z,2.20
2018-08-30T20:24:44.236Z,2.63
2018-08-30T20:27:13.125Z,1.83
2018-08-30T20:29:41.978Z,2.33
2018-08-30T20:32:10.906Z,2.20
2018-08-30T20:34:39.597Z,2.27
2018-08-30T20:37:08.639Z,2.73
2018-08-30T20:39:37.615Z,2.70
2018-08-30T20:42:06.147Z,2.50
2018-08-30T20:47:27.351Z,2.40
2018-08-30T20:49:56.437Z,2.20
2018-08-30T20:52:25.256Z,2.23
2018-08-30T20:54:53.831Z,1.90
2018-08-30T20:57:22.487Z,2.00
2018-08-30T20:59:51.160Z,2.60
2018-08-30T21:02:19.591Z,2.70
2018-08-30T21:04:48.218Z,2.43
2018-08-30T21:07:17.539Z,2.07
2018-08-30T21:09:46.098Z,2.57
2018-08-30T21:12:14.752Z,2.63
2018-08-30T21:14:44.687Z,2.50
2018-08-30T21:17:13.740Z,2.30
2018-08-30T21:19:43.131Z,2.17
2018-08-30T21:22:11.818Z,2.40
2018-08-30T21:24:40.322Z,2.40
2018-08-30T21:27:08.840Z,2.63
2018-08-30T21:29:37.351Z,2.60
2018-08-30T21:32:05.950Z,2.53
2018-08-30T21:34:34.445Z,2.50
2018-08-30T21:37:02.971Z,2.70
2018-08-30T21:39:31.436Z,2.77
2018-08-30T21:42:03.465Z,3.17
2018-08-30T21:44:31.948Z,4.00
2018-08-30T21:47:00.465Z,3.53
2018-08-30T21:49:28.968Z,3.27
2018-08-30T21:51:57.977Z,3.37
2018-08-30T21:54:26.388Z,3.27
2018-08-30T21:56:54.970Z,2.60
2018-08-30T21:59:23.477Z,2.40
2018-08-30T22:01:51.988Z,2.60
2018-08-30T22:04:20.654Z,2.30
2018-08-30T22:06:49.209Z,2.50
2018-08-30T22:09:17.681Z,2.33
2018-08-30T22:11:46.124Z,2.10
2018-08-30T22:14:14.573Z,2.30
2018-08-30T22:16:43.294Z,2.57
2018-08-30T22:19:12.290Z,3.00
2018-08-30T22:21:40.782Z,3.37
2018-08-30T22:24:09.327Z,3.83
2018-08-30T22:26:37.824Z,4.03
2018-08-30T22:29:06.268Z,4.07
2018-08-30T22:31:34.803Z,3.87
2018-08-30T22:34:03.315Z,3.47
2018-08-30T22:36:31.803Z,3.37
2018-08-30T22:39:00.177Z,3.70
2018-08-30T22:41:28.688Z,2.83
2018-08-30T22:43:57.199Z,3.07
2018-08-30T22:46:25.659Z,3.00
2018-08-30T22:48:54.195Z,3.10
2018-08-30T22:51:22.719Z,3.60
2018-08-30T22:53:51.247Z,3.07
2018-08-30T22:56:19.755Z,3.03
2018-08-30T22:58:48.404Z,3.50
2018-08-30T23:01:17.063Z,3.37
2018-08-30T23:03:45.644Z,3.23
2018-08-30T23:06:14.317Z,3.10
2018-08-30T23:08:43.833Z,3.20
2018-08-30T23:11:12.506Z,3.70
2018-08-30T23:13:41.117Z,3.23
2018-08-30T23:16:09.928Z,3.30
2018-08-30T23:18:38.600Z,4.23
2018-08-30T23:21:07.101Z,4.23
2018-08-30T23:23:35.598Z,3.80
2018-08-30T23:26:04.187Z,3.73
2018-08-30T23:28:32.810Z,3.10
2018-08-30T23:31:01.379Z,2.70
2018-08-30T23:33:29.875Z,3.00
2018-08-30T23:35:58.473Z,3.43
2018-08-30T23:38:26.983Z,2.97
2018-08-30T23:40:55.573Z,3.20
2018-08-30T23:43:24.045Z,3.07
2018-08-30T23:45:52.601Z,3.70
2018-08-30T23:48:21.155Z,3.47
2018-08-30T23:50:49.725Z,3.40
2018-08-30T23:53:18.360Z,3.97
2018-08-30T23:55:47.048Z,3.70
2018-08-30T23:58:26.922Z,3.43
